トロンハイム の空港の天気 - METARとTAF

Trondheim / Vaernes ( ENVA / TRD ) - ノルウェー ヌール・トロンデラーグ県、Stjordal
飛行場実況気象(Metar)
観測時間03/30 14:20 CEST (03/30 12:20 UTC)
風向・風速東 2m/s
視程10km以上
天気現象
なし
気温5℃
湿度42%
気圧1011hPa
METARENVA 301220Z 09004KT 060V140 CAVOK 05/M07 Q1011 NOSIG RMK WIND 670FT VRB03KT
過去の天気等 Google飛行場航空写真 Wunderground天気予報

過去48時間のMETAR

飛行場予報(TAF)
発表時間: -
30日20時 CEST ~ 31日2時 CEST に 確率 40% で一時的に
視程4,000m
天気現象弱い雨雪
全天を覆う雲 鉛直視程 430m
TAF ENVA 3012/3112 11010KT 9999 FEW035 SCT060
PROB40 TEMPO 3018/3024 4000 -RASN VV014